Twin Lakes, Connecticut
Current Conditions -  °F | °C
As of 3:54 AM on Saturday 25 Oct 2014 (Local Time) from KPSF Reporting Station
Few Clouds Few Clouds  
Wind Chill: 36°   Ceiling: Unl
Heat Index: 43°   Visibility: 10mi
Dew Point: 41°   Wind: 13mph
Humidity: 93%   Direction: 290°WNW
Pressure: 29.8"   Gusts: NA
Location:  41.9834°N, 73.4219°W
Report Text: KPSF 250754Z AUTO 29011KT 10SM FEW009 06/05 A2980 RMK AO2 SLP090 T00610050
Loading
Personal Weather Stations






























Interactive Weather Map
Tropical Storm Tracking
New forecast layout! Learn more

10-Day Weather Forecast

Advertisements
Track Severe Weather on mobile